Hauptseite
METAR-TAF:

METAR-TAF

Flughäfen :

Eureka, Nunavut, Kanada

Breite: 79-59N, Länge: 085-56W, Höhe: 10 m

Beobachtung

Neuester Wetterbericht von vor 17 Minuten, um 02:00 UTC
Wind 3 kt aus West/Nordwest, variierte zwischen West und Nord
Temperatur -9°C
Luftfeuchtigkeit 79%
Luftdruck 1013 hPa
Sichtweite: 24.1 km
Leicht bewölkt in der Höhe von 1700 ft
Leicht bewölkt in der Höhe von 5000 ft
Leicht bewölkt in der Höhe von 12000 ft
Eisnadeln

METAR: CWEU 260200Z 29003KT 280V350 15SM IC FEW017 FEW050 FEW120 M09/M12 A2992 RMK ST1SC1AC1 ST TR SC TR SLP133

Zeit: 21:17 (02:17 UTC)


TAF: fehlend

Wetterbeobachtungen und Prognosen von mehr als 4000 Flughäfen (METAR und TAF Bericht).

Die verfügbaren Stationen werden durch gelbe und rote Markierungen auf der Karte dargestellt.

Führen Sie die Maus auf sie, um den Namen der Station zu sehen.

Darauf klicken, um die Beobachtung von Wetterbeobachtungen und Prognosen zu sehen.

Um die Karte zu ändern : klicken Sie auf den grünen Tasten mit einem schwarzen Kreuz Zum Vergrößern, auf den grünen Button mit einem Gedankenstrich zu verkleinern, oder auf die grünen Pfeile für benachbarte Karten.


METAR-TAF: